createdAt,value
2023-02-05T00:03:45.471Z,-0.57
2023-02-05T00:08:47.999Z,-0.75
2023-02-05T00:13:50.395Z,-0.78
2023-02-05T00:18:53.372Z,-0.72
2023-02-05T00:23:55.697Z,-0.66
2023-02-05T00:28:58.013Z,-0.83
2023-02-05T00:34:00.442Z,-1.02
2023-02-05T00:53:10.563Z,-0.54
2023-02-05T00:58:13.112Z,-1.09
2023-02-05T01:03:15.423Z,-0.97
2023-02-05T01:08:17.623Z,-1.28
2023-02-05T01:13:20.095Z,-1.27
2023-02-05T01:18:22.375Z,-1.30
2023-02-05T01:23:24.539Z,-1.28
2023-02-05T01:28:26.724Z,-1.02
2023-02-05T01:33:29.670Z,-1.09
2023-02-05T01:38:31.810Z,-0.97
2023-02-05T01:43:34.147Z,-0.94
2023-02-05T01:48:42.602Z,-1.03
2023-02-05T01:53:46.728Z,-1.52
2023-02-05T01:58:57.359Z,-1.37
2023-02-05T02:04:04.924Z,-1.35
2023-02-05T02:09:08.407Z,-1.57
2023-02-05T02:14:12.420Z,-1.46
2023-02-05T02:19:23.968Z,-1.62
2023-02-05T02:25:40.257Z,-1.67
2023-02-05T02:31:14.155Z,-1.56
2023-02-05T02:36:25.567Z,-1.88
2023-02-05T02:41:37.750Z,-1.96
2023-02-05T02:46:49.111Z,-2.09
2023-02-05T02:51:52.679Z,-2.15
2023-02-05T02:56:58.123Z,-2.18
2023-02-05T03:02:04.935Z,-2.23
2023-02-05T03:07:35.291Z,-2.41
2023-02-05T03:12:40.329Z,-2.75
2023-02-05T03:17:44.055Z,-2.66
2023-02-05T03:22:46.632Z,-2.74
2023-02-05T03:27:52.305Z,-2.70
2023-02-05T03:33:32.375Z,-2.41
2023-02-05T03:38:58.593Z,-2.42
2023-02-05T03:44:24.199Z,-2.74
2023-02-05T03:50:00.116Z,-2.84
2023-02-05T03:55:05.568Z,-2.74
2023-02-05T04:00:10.232Z,-2.79
2023-02-05T04:05:23.206Z,-3.06
2023-02-05T04:10:28.412Z,-3.03
2023-02-05T04:15:34.238Z,-3.04
2023-02-05T04:20:40.430Z,-3.35
2023-02-05T04:25:44.621Z,-3.56
2023-02-05T04:30:51.529Z,-3.61
2023-02-05T04:35:59.282Z,-3.61
2023-02-05T04:41:51.495Z,-3.49
2023-02-05T04:46:53.922Z,-3.58
2023-02-05T04:51:56.329Z,-3.44
2023-02-05T04:56:58.670Z,-3.36
2023-02-05T05:02:01.053Z,-3.43
2023-02-05T05:07:03.892Z,-3.48
2023-02-05T05:12:06.650Z,-3.62
2023-02-05T05:17:08.840Z,-3.60
2023-02-05T05:22:11.263Z,-3.60
2023-02-05T05:27:13.641Z,-3.95
2023-02-05T05:32:15.914Z,-3.93
2023-02-05T05:37:18.329Z,-3.98
2023-02-05T05:42:39.168Z,-4.21
2023-02-05T05:47:41.165Z,-3.99
2023-02-05T05:52:43.395Z,-4.11
2023-02-05T05:57:45.662Z,-3.89
2023-02-05T06:02:47.926Z,-3.92
2023-02-05T06:07:50.108Z,-4.13
2023-02-05T06:12:55.544Z,-4.07
2023-02-05T06:17:57.822Z,-4.06
2023-02-05T06:23:00.467Z,-4.11
2023-02-05T06:28:03.118Z,-4.24
2023-02-05T06:33:05.716Z,-4.37
2023-02-05T06:38:08.398Z,-4.20
2023-02-05T06:43:10.591Z,-4.18
2023-02-05T06:48:27.787Z,-4.07
2023-02-05T06:53:32.049Z,-4.30
2023-02-05T06:58:34.648Z,-4.04
2023-02-05T07:03:37.100Z,-3.76
2023-02-05T07:08:39.358Z,-3.69
2023-02-05T07:13:41.522Z,-3.45
2023-02-05T07:18:43.863Z,-3.23
2023-02-05T07:23:46.113Z,-3.21
2023-02-05T07:28:48.378Z,-3.27
2023-02-05T07:33:51.065Z,-3.27
2023-02-05T07:38:53.249Z,-3.56
2023-02-05T07:43:55.374Z,-3.30
2023-02-05T07:48:57.726Z,-3.22
2023-02-05T07:53:59.856Z,-3.08
2023-02-05T07:59:02.315Z,-3.04
2023-02-05T08:04:04.968Z,-3.14
2023-02-05T08:09:07.402Z,-3.00
2023-02-05T08:14:09.641Z,-3.03
2023-02-05T08:19:16.583Z,-3.08
2023-02-05T08:24:19.041Z,-3.00
2023-02-05T08:29:21.250Z,-3.41
2023-02-05T08:34:23.704Z,-3.06
2023-02-05T08:39:26.465Z,-2.85
2023-02-05T08:44:29.552Z,-2.82
2023-02-05T08:49:31.811Z,-2.43
2023-02-05T08:54:34.187Z,-1.97
2023-02-05T08:59:36.334Z,-2.06
2023-02-05T09:04:39.593Z,-2.15
2023-02-05T09:09:45.177Z,-1.88
2023-02-05T09:14:47.324Z,-1.83
2023-02-05T09:19:49.454Z,-1.39
2023-02-05T09:24:51.751Z,-0.90
2023-02-05T09:29:53.915Z,-0.54
2023-02-05T09:34:56.339Z,-0.93
2023-02-05T09:45:42.600Z,-1.91
2023-02-05T09:50:45.210Z,-1.76
2023-02-05T09:55:48.477Z,-1.68
2023-02-05T10:00:55.797Z,-2.02
2023-02-05T10:06:16.609Z,-2.57
2023-02-05T10:11:40.858Z,-2.04
2023-02-05T10:17:07.293Z,-2.41
2023-02-05T10:22:26.990Z,-2.44
2023-02-05T10:28:03.929Z,-2.59
2023-02-05T10:33:30.929Z,-2.32
2023-02-05T10:38:38.300Z,-2.29
2023-02-05T10:43:46.677Z,-2.18
2023-02-05T10:48:59.910Z,-2.25
2023-02-05T10:54:02.409Z,-2.13
2023-02-05T10:59:06.381Z,-2.15
2023-02-05T11:04:15.547Z,-2.21
2023-02-05T11:09:27.183Z,-2.09
2023-02-05T11:14:41.319Z,-2.28
2023-02-05T11:19:54.478Z,-2.51
2023-02-05T11:25:13.729Z,-2.34
2023-02-05T11:30:56.114Z,-2.57
2023-02-05T11:36:14.280Z,-1.96
2023-02-05T11:41:48.599Z,-1.38
2023-02-05T11:46:57.110Z,-1.46
2023-02-05T11:52:01.918Z,-1.64
2023-02-05T11:57:22.568Z,-1.70
2023-02-05T12:02:30.641Z,-2.16
2023-02-05T12:07:41.465Z,-2.13
2023-02-05T12:13:06.973Z,-1.91
2023-02-05T12:18:26.975Z,-1.94
2023-02-05T12:23:59.832Z,-1.85
2023-02-05T12:29:05.182Z,-1.83
2023-02-05T12:34:36.256Z,-1.84
2023-02-05T12:39:45.538Z,-1.53
2023-02-05T12:50:58.500Z,-1.21
2023-02-05T12:56:07.035Z,-1.10
2023-02-05T13:01:15.237Z,-1.38
2023-02-05T13:06:20.571Z,-1.38
2023-02-05T13:11:31.113Z,-1.84
2023-02-05T13:16:45.098Z,-1.92
2023-02-05T13:22:06.114Z,-2.25
2023-02-05T13:27:53.300Z,-2.03
2023-02-05T13:33:00.609Z,-2.26
2023-02-05T13:38:17.726Z,-2.36
2023-02-05T13:43:38.452Z,-2.48
2023-02-05T13:49:02.726Z,-2.49
2023-02-05T13:54:23.509Z,-2.71
2023-02-05T13:59:51.772Z,-2.79
2023-02-05T14:04:55.033Z,-3.00
2023-02-05T14:10:02.947Z,-3.01
2023-02-05T14:15:21.232Z,-2.55
2023-02-05T14:20:26.518Z,-2.71
2023-02-05T14:26:07.495Z,-0.84
2023-02-05T14:31:45.804Z,-0.59
2023-02-05T14:36:48.200Z,-1.31
2023-02-05T14:41:56.242Z,-1.45
2023-02-05T14:47:08.923Z,-1.40
2023-02-05T14:52:31.574Z,-1.90
2023-02-05T14:57:40.137Z,-2.09
2023-02-05T15:03:10.195Z,-1.28
2023-02-05T15:08:48.086Z,-0.27
2023-02-05T15:14:35.640Z,-0.34
2023-02-05T15:19:50.342Z,0.63
2023-02-05T15:24:54.056Z,-1.09
2023-02-05T15:29:57.516Z,-0.03
2023-02-05T15:35:14.580Z,0.75
2023-02-05T15:40:25.326Z,0.29
2023-02-05T15:50:56.643Z,-0.41
2023-02-05T15:56:07.429Z,-0.43
2023-02-05T16:01:09.858Z,-1.43
2023-02-05T16:06:20.059Z,-2.47
2023-02-05T16:11:34.378Z,-2.96
2023-02-05T16:16:39.941Z,-3.58
2023-02-05T16:21:48.517Z,-3.57
2023-02-05T16:41:40.868Z,-3.52
2023-02-05T16:46:43.155Z,-3.65
2023-02-05T16:51:48.225Z,-3.56
2023-02-05T16:57:16.599Z,-3.84
2023-02-05T17:02:33.731Z,-3.92
2023-02-05T17:07:36.835Z,-3.98
2023-02-05T17:12:46.920Z,-4.09
2023-02-05T17:17:55.076Z,-4.07
2023-02-05T17:23:03.724Z,-3.96
2023-02-05T17:28:08.184Z,-4.15
2023-02-05T17:33:15.455Z,-4.29
2023-02-05T17:38:18.302Z,-4.25
2023-02-05T17:43:40.891Z,-4.20
2023-02-05T17:48:44.857Z,-4.53
2023-02-05T17:53:56.794Z,-4.61
2023-02-05T17:59:02.044Z,-4.65
2023-02-05T18:04:04.245Z,-4.26
2023-02-05T18:09:07.100Z,-4.73
2023-02-05T18:14:09.935Z,-4.63
2023-02-05T18:19:14.751Z,-4.61
2023-02-05T18:24:17.135Z,-4.73
2023-02-05T18:29:21.754Z,-4.64
2023-02-05T18:34:24.309Z,-4.65
2023-02-05T18:39:29.057Z,-4.85
2023-02-05T18:44:33.078Z,-4.79
2023-02-05T18:49:35.483Z,-4.72
2023-02-05T18:54:37.688Z,-4.87
2023-02-05T18:59:40.981Z,-4.55
2023-02-05T19:04:44.691Z,-4.57
2023-02-05T19:09:46.881Z,-4.63
2023-02-05T19:14:49.951Z,-4.48
2023-02-05T19:19:52.454Z,-4.60
2023-02-05T19:24:55.757Z,-4.85
2023-02-05T19:35:49.179Z,-5.14
2023-02-05T19:40:51.852Z,-4.96
2023-02-05T19:45:55.448Z,-4.88
2023-02-05T19:51:03.930Z,-4.94
2023-02-05T19:56:07.816Z,-4.79
2023-02-05T20:01:23.917Z,-4.92
2023-02-05T20:06:29.721Z,-4.95
2023-02-05T20:11:35.605Z,-4.56
2023-02-05T20:16:40.689Z,-5.01
2023-02-05T20:21:44.344Z,-4.88
2023-02-05T20:26:50.564Z,-4.64
2023-02-05T20:32:02.237Z,-4.92
2023-02-05T20:37:21.132Z,-5.06
2023-02-05T20:42:26.374Z,-5.15
2023-02-05T20:47:28.947Z,-4.95
2023-02-05T20:52:31.552Z,-4.99
2023-02-05T20:57:33.822Z,-4.96
2023-02-05T21:02:39.005Z,-5.21
2023-02-05T21:07:41.512Z,-5.25
2023-02-05T21:12:43.746Z,-5.19
2023-02-05T21:17:45.939Z,-5.42
2023-02-05T21:22:48.246Z,-5.36
2023-02-05T21:27:51.065Z,-5.41
2023-02-05T21:32:53.698Z,-5.35
2023-02-05T21:37:55.903Z,-5.38
2023-02-05T21:42:58.206Z,-5.36
2023-02-05T21:48:00.667Z,-5.36
2023-02-05T21:53:02.892Z,-5.23
2023-02-05T21:58:05.084Z,-5.17
2023-02-05T22:03:07.467Z,-4.90
2023-02-05T22:08:11.802Z,-4.70
2023-02-05T22:13:14.284Z,-4.90
2023-02-05T22:18:19.040Z,-5.12
2023-02-05T22:23:21.403Z,-4.82
2023-02-05T22:28:23.646Z,-4.86
2023-02-05T22:33:25.832Z,-4.77
2023-02-05T22:38:30.533Z,-4.98
2023-02-05T22:43:32.876Z,-4.80
2023-02-05T22:48:40.611Z,-4.91
2023-02-05T22:53:43.523Z,-4.66
2023-02-05T22:58:47.831Z,-4.71
2023-02-05T23:03:52.195Z,-5.04
2023-02-05T23:08:57.657Z,-4.94
2023-02-05T23:14:01.128Z,-4.95
2023-02-05T23:19:07.676Z,-4.83
2023-02-05T23:24:10.489Z,-4.97
2023-02-05T23:29:15.894Z,-5.07
2023-02-05T23:34:18.340Z,-5.01
2023-02-05T23:39:20.835Z,-4.95
2023-02-05T23:44:23.237Z,-5.02
2023-02-05T23:49:25.786Z,-5.16
2023-02-05T23:54:28.090Z,-5.23
2023-02-05T23:59:30.625Z,-5.34
